Time;durP1;ratioP1;P1;durP2;ratioP2;P2;SDS_P1;SDS_P2;PMS_P1;PMS_P2;Temp;Humidity;BMP_temperature;BMP_pressure;BME280_temperature;BME280_humidity;BME280_pressure;Samples;Min_cycle;Max_cycle;Signal;HPM_P1;HPM_P2
2023/03/29 00:02:32;;;;;;;7.60;3.50;;;6.70;99.90;;;;;;5037402;28;20223;-74
2023/03/29 00:05:03;;;;;;;9.20;4.17;;;6.70;99.90;;;;;;5020723;28;20254;-71
2023/03/29 00:07:32;;;;;;;6.67;4.60;;;6.70;99.90;;;;;;5034367;28;20299;-73
2023/03/29 00:10:00;;;;;;;8.63;4.57;;;6.70;99.90;;;;;;5044026;28;20807;-73
2023/03/29 00:12:27;;;;;;;6.17;4.43;;;6.70;99.90;;;;;;5037974;28;20255;-73
2023/03/29 00:14:54;;;;;;;7.80;4.93;;;6.70;99.90;;;;;;5038018;28;20207;-72
2023/03/29 00:17:21;;;;;;;7.17;5.00;;;6.70;99.90;;;;;;5044393;28;20333;-71
2023/03/29 00:19:48;;;;;;;7.13;4.70;;;6.70;99.90;;;;;;5037283;28;20206;-71
2023/03/29 00:22:15;;;;;;;10.60;5.80;;;6.70;99.90;;;;;;5040906;28;20206;-72
2023/03/29 00:24:42;;;;;;;14.87;5.53;;;6.70;99.90;;;;;;5043278;28;20556;-72
2023/03/29 00:27:09;;;;;;;11.57;5.53;;;6.70;99.90;;;;;;5023247;28;20426;-72
2023/03/29 00:29:35;;;;;;;9.10;5.40;;;6.80;99.90;;;;;;5039028;28;20261;-72
2023/03/29 00:32:02;;;;;;;7.70;5.73;;;6.80;99.90;;;;;;5020994;28;20265;-72
2023/03/29 00:34:34;;;;;;;8.37;5.20;;;6.70;99.90;;;;;;5040967;28;20210;-72
2023/03/29 00:37:02;;;;;;;9.67;4.90;;;6.70;99.90;;;;;;5037432;28;20256;-71
2023/03/29 00:39:29;;;;;;;8.47;5.17;;;6.80;99.90;;;;;;5039827;28;20274;-72
2023/03/29 00:41:56;;;;;;;8.13;4.67;;;6.70;99.90;;;;;;5042187;28;20235;-73
2023/03/29 00:44:50;;;;;;;9.27;4.87;;;6.70;99.90;;;;;;5029398;28;20713;-73
2023/03/29 00:47:41;;;;;;;6.47;4.93;;;6.80;99.90;;;;;;5037455;28;20204;-72
2023/03/29 00:50:25;;;;;;;7.87;5.07;;;6.80;99.90;;;;;;5036700;28;20590;-71
2023/03/29 00:52:59;;;;;;;10.30;5.47;;;6.80;99.90;;;;;;5024883;28;20215;-73
2023/03/29 00:55:31;;;;;;;8.97;4.80;;;6.70;99.90;;;;;;5045847;28;20217;-72
2023/03/29 00:57:59;;;;;;;10.70;5.10;;;6.80;99.90;;;;;;5036438;28;20842;-72
2023/03/29 01:00:32;;;;;;;8.30;5.10;;;6.80;99.90;;;;;;5038655;28;20764;-73
2023/03/29 01:03:02;;;;;;;7.37;4.80;;;6.80;99.90;;;;;;5038181;28;20253;-73
2023/03/29 01:05:38;;;;;;;6.53;4.43;;;6.80;99.90;;;;;;5010286;28;20500;-72
2023/03/29 01:08:24;;;;;;;7.83;4.47;;;6.80;99.90;;;;;;5014787;28;20246;-73
2023/03/29 01:11:00;;;;;;;9.30;4.70;;;6.80;99.90;;;;;;5041578;28;20281;-73
2023/03/29 01:13:43;;;;;;;7.70;4.60;;;6.80;99.90;;;;;;5038414;28;20210;-73
2023/03/29 01:16:12;;;;;;;6.93;4.60;;;6.80;99.90;;;;;;5035904;28;20226;-72
2023/03/29 01:18:40;;;;;;;9.83;4.57;;;6.80;99.90;;;;;;5045084;28;20779;-72
2023/03/29 01:21:22;;;;;;;8.30;4.70;;;6.90;99.90;;;;;;5036518;28;20238;-73
2023/03/29 01:23:57;;;;;;;8.33;4.63;;;6.80;99.90;;;;;;5038848;28;20210;-72
2023/03/29 01:26:46;;;;;;;10.13;4.27;;;6.80;99.90;;;;;;5019631;28;20241;-72
2023/03/29 01:29:24;;;;;;;6.50;4.43;;;6.80;99.90;;;;;;5036977;28;20683;-72
2023/03/29 01:32:07;;;;;;;9.23;4.40;;;6.80;99.90;;;;;;5038163;28;20210;-73
2023/03/29 01:34:54;;;;;;;6.47;4.47;;;6.80;99.90;;;;;;5038163;28;20265;-73
2023/03/29 01:37:36;;;;;;;7.50;4.50;;;6.80;99.90;;;;;;5034855;28;20592;-72
2023/03/29 01:40:05;;;;;;;6.33;4.17;;;6.80;99.90;;;;;;5025413;28;20206;-72
2023/03/29 01:42:43;;;;;;;6.23;4.13;;;6.80;99.90;;;;;;5040971;28;20619;-72
2023/03/29 01:45:10;;;;;;;6.77;4.33;;;6.90;99.90;;;;;;5028674;28;20335;-72
2023/03/29 01:47:43;;;;;;;6.73;4.10;;;6.90;99.90;;;;;;5019647;28;20248;-71
2023/03/29 01:50:18;;;;;;;8.37;4.10;;;6.90;99.90;;;;;;5036982;28;20216;-71
2023/03/29 01:52:55;;;;;;;7.27;4.50;;;6.90;99.90;;;;;;5036066;28;20695;-74
2023/03/29 01:55:27;;;;;;;7.80;4.20;;;7.00;99.90;;;;;;5041109;28;20195;-73
2023/03/29 01:57:55;;;;;;;5.73;4.03;;;7.00;99.90;;;;;;5040484;28;20802;-73
2023/03/29 02:00:26;;;;;;;8.60;3.83;;;6.90;99.90;;;;;;5037783;28;20235;-73
2023/03/29 02:02:59;;;;;;;9.00;3.90;;;7.00;99.90;;;;;;5046562;28;20300;-72
2023/03/29 02:05:29;;;;;;;6.60;4.03;;;7.00;99.90;;;;;;5041776;28;20246;-72
2023/03/29 02:07:58;;;;;;;5.73;3.30;;;7.00;99.90;;;;;;5042760;28;20221;-72
2023/03/29 02:10:27;;;;;;;6.23;3.83;;;7.00;99.90;;;;;;5040933;28;20591;-72
2023/03/29 02:12:54;;;;;;;6.20;3.63;;;7.00;99.90;;;;;;5032798;28;20392;-73
2023/03/29 02:15:22;;;;;;;6.77;4.10;;;7.00;99.90;;;;;;5041518;28;20269;-72
2023/03/29 02:17:50;;;;;;;7.83;4.10;;;7.00;99.90;;;;;;5030383;28;21079;-72
2023/03/29 02:20:31;;;;;;;6.40;3.80;;;7.00;99.90;;;;;;5028724;28;20207;-73
2023/03/29 02:23:07;;;;;;;6.50;3.87;;;7.00;99.90;;;;;;5039877;28;20213;-73
2023/03/29 02:25:36;;;;;;;8.30;3.97;;;7.00;99.90;;;;;;5039294;28;20208;-73
2023/03/29 02:28:05;;;;;;;6.60;3.67;;;7.10;99.90;;;;;;5043475;28;20238;-72
2023/03/29 02:30:52;;;;;;;7.57;4.00;;;7.20;99.90;;;;;;5041045;28;20319;-72
2023/03/29 02:33:52;;;;;;;6.17;4.20;;;7.10;99.90;;;;;;5042995;28;20254;-73
2023/03/29 02:36:46;;;;;;;6.30;3.90;;;7.20;99.90;;;;;;5039221;28;20689;-71
2023/03/29 02:39:14;;;;;;;8.10;4.40;;;7.20;99.90;;;;;;5042844;28;20768;-74
2023/03/29 02:41:45;;;;;;;4.90;3.63;;;7.20;99.90;;;;;;5043775;28;20209;-73
2023/03/29 02:44:17;;;;;;;5.93;3.87;;;7.20;99.90;;;;;;5041654;28;20765;-72
2023/03/29 02:46:47;;;;;;;6.03;3.97;;;7.20;99.90;;;;;;5042674;28;20244;-72
2023/03/29 02:49:15;;;;;;;6.23;4.90;;;7.20;99.90;;;;;;5029309;28;20223;-72
2023/03/29 02:51:46;;;;;;;6.33;3.53;;;7.20;99.90;;;;;;5028127;28;20307;-71
2023/03/29 02:54:17;;;;;;;6.57;4.00;;;7.20;99.90;;;;;;5042146;28;20246;-72
2023/03/29 02:56:49;;;;;;;6.97;4.03;;;7.30;99.90;;;;;;5040450;28;20370;-72
2023/03/29 02:59:24;;;;;;;6.10;3.97;;;7.30;99.90;;;;;;5040565;28;20246;-72
2023/03/29 03:01:52;;;;;;;7.70;4.07;;;7.30;99.90;;;;;;5038373;28;20287;-72
2023/03/29 03:04:22;;;;;;;8.90;3.87;;;7.20;99.90;;;;;;5044551;28;20220;-73
2023/03/29 03:06:49;;;;;;;6.37;3.90;;;7.30;99.90;;;;;;5033332;28;20799;-71
2023/03/29 03:09:16;;;;;;;6.67;4.37;;;7.30;99.90;;;;;;5046372;28;20211;-72
2023/03/29 03:11:43;;;;;;;8.67;4.87;;;7.20;99.90;;;;;;5042805;28;20218;-71
2023/03/29 03:14:10;;;;;;;6.63;4.47;;;7.20;99.90;;;;;;5043086;28;20229;-71
2023/03/29 03:16:37;;;;;;;8.30;4.97;;;7.20;99.90;;;;;;5046731;28;20694;-72
2023/03/29 03:19:04;;;;;;;7.13;4.63;;;7.20;99.90;;;;;;5042689;28;20226;-72
2023/03/29 03:21:32;;;;;;;7.40;4.47;;;7.20;99.90;;;;;;5041315;28;20295;-73
2023/03/29 03:23:59;;;;;;;10.13;5.30;;;7.20;99.90;;;;;;5040916;28;20204;-72
2023/03/29 03:26:28;;;;;;;7.73;5.13;;;7.20;99.90;;;;;;5039734;28;20776;-73
2023/03/29 03:28:56;;;;;;;7.97;5.30;;;7.20;99.90;;;;;;5039227;28;20226;-71
2023/03/29 03:31:23;;;;;;;6.70;4.60;;;7.20;99.90;;;;;;5031110;28;20214;-71
2023/03/29 03:33:51;;;;;;;9.77;4.87;;;7.20;99.90;;;;;;5040495;28;20636;-74
2023/03/29 03:36:18;;;;;;;8.47;4.90;;;7.20;99.90;;;;;;5042145;28;20205;-73
2023/03/29 03:38:45;;;;;;;11.73;5.50;;;7.20;99.90;;;;;;5024227;28;20602;-73
2023/03/29 03:41:12;;;;;;;12.77;5.83;;;7.20;99.90;;;;;;5014240;28;20302;-72
2023/03/29 03:43:41;;;;;;;9.70;5.07;;;7.20;99.90;;;;;;5040514;28;20235;-72
2023/03/29 03:46:08;;;;;;;9.83;5.63;;;7.20;99.90;;;;;;5038621;28;20208;-71
2023/03/29 03:48:36;;;;;;;7.63;4.77;;;7.20;99.90;;;;;;5041538;28;20224;-72
2023/03/29 03:51:03;;;;;;;7.67;5.50;;;7.20;99.90;;;;;;5030952;28;20825;-72
2023/03/29 03:53:31;;;;;;;9.07;5.53;;;7.20;99.90;;;;;;5039518;28;20209;-72
2023/03/29 03:55:58;;;;;;;8.67;5.57;;;7.20;99.90;;;;;;5045406;28;20304;-72
2023/03/29 03:58:26;;;;;;;13.63;6.53;;;7.20;99.90;;;;;;5041756;28;20234;-73
2023/03/29 04:00:54;;;;;;;10.07;5.70;;;7.20;99.90;;;;;;5039807;28;20710;-72
2023/03/29 04:03:22;;;;;;;8.33;5.50;;;7.20;99.90;;;;;;5041389;28;20242;-72
2023/03/29 04:05:49;;;;;;;7.27;5.30;;;7.20;99.90;;;;;;5037801;28;20271;-72
2023/03/29 04:08:16;;;;;;;10.60;5.70;;;7.20;99.90;;;;;;5035050;28;20208;-72
2023/03/29 04:10:51;;;;;;;11.77;5.77;;;7.20;99.90;;;;;;5040160;28;20200;-72
2023/03/29 04:13:23;;;;;;;8.70;5.70;;;7.20;99.90;;;;;;5023603;28;20938;-72
2023/03/29 04:15:52;;;;;;;10.13;6.37;;;7.20;99.90;;;;;;5042422;28;20885;-72
2023/03/29 04:18:20;;;;;;;10.30;6.23;;;7.20;99.90;;;;;;5041722;28;20243;-72
2023/03/29 04:20:48;;;;;;;14.43;6.17;;;7.20;99.90;;;;;;5041304;28;20687;-73
2023/03/29 04:23:15;;;;;;;12.53;6.00;;;7.20;99.90;;;;;;5039972;28;20235;-72
2023/03/29 04:25:45;;;;;;;8.40;6.17;;;7.20;99.90;;;;;;5037952;28;20208;-73
2023/03/29 04:28:12;;;;;;;12.07;6.77;;;7.30;99.90;;;;;;5048157;28;20234;-74
2023/03/29 04:30:39;;;;;;;10.13;6.53;;;7.30;99.90;;;;;;5039194;28;20217;-72
2023/03/29 04:33:06;;;;;;;11.13;6.60;;;7.20;99.90;;;;;;5020221;28;20688;-72
2023/03/29 04:35:33;;;;;;;11.03;5.57;;;7.30;99.90;;;;;;5037948;28;20269;-72
2023/03/29 04:38:00;;;;;;;12.70;6.50;;;7.30;99.90;;;;;;5037620;28;20238;-71
2023/03/29 04:40:27;;;;;;;10.87;6.20;;;7.30;99.90;;;;;;5037759;28;20212;-72
2023/03/29 04:42:55;;;;;;;9.80;6.43;;;7.40;99.90;;;;;;5039033;28;20686;-72
2023/03/29 04:45:22;;;;;;;10.20;6.67;;;7.40;99.90;;;;;;5030888;28;20393;-72
2023/03/29 04:47:48;;;;;;;11.80;6.53;;;7.40;99.90;;;;;;5037720;28;20312;-73
2023/03/29 04:50:16;;;;;;;10.80;6.43;;;7.40;99.90;;;;;;5040527;28;20204;-71
2023/03/29 04:52:44;;;;;;;12.63;7.87;;;7.40;99.90;;;;;;5038361;28;20625;-72
2023/03/29 04:55:11;;;;;;;8.83;6.00;;;7.50;99.90;;;;;;5038587;28;20210;-72
2023/03/29 04:57:38;;;;;;;9.87;6.43;;;7.40;99.90;;;;;;5040740;28;20285;-72
2023/03/29 05:00:13;;;;;;;8.20;6.20;;;7.50;99.90;;;;;;5035675;28;20244;-73
2023/03/29 05:02:42;;;;;;;12.50;6.30;;;7.50;99.90;;;;;;5039747;28;20228;-72
2023/03/29 05:05:10;;;;;;;11.77;6.27;;;7.50;99.90;;;;;;5037071;28;20259;-72
2023/03/29 05:07:38;;;;;;;9.20;6.17;;;7.50;99.90;;;;;;5042214;28;20277;-72
2023/03/29 05:10:05;;;;;;;12.43;6.03;;;7.50;99.90;;;;;;5037680;28;20206;-72
2023/03/29 05:12:32;;;;;;;14.00;6.57;;;7.50;99.90;;;;;;5035965;28;20290;-71
2023/03/29 05:14:59;;;;;;;10.80;5.80;;;7.50;99.90;;;;;;5033311;28;20268;-72
2023/03/29 05:17:26;;;;;;;10.40;6.70;;;7.50;99.90;;;;;;5037445;28;20298;-73
2023/03/29 05:19:53;;;;;;;7.93;5.93;;;7.50;99.90;;;;;;5032801;28;20568;-74
2023/03/29 05:22:20;;;;;;;11.33;6.60;;;7.60;99.90;;;;;;5038488;28;20631;-71
2023/03/29 05:24:47;;;;;;;12.37;6.47;;;7.60;99.90;;;;;;5041137;28;20237;-73
2023/03/29 05:27:15;;;;;;;10.40;6.17;;;7.50;99.90;;;;;;5036563;28;20318;-73
2023/03/29 05:29:43;;;;;;;9.80;5.73;;;7.50;99.90;;;;;;5023103;28;20217;-72
2023/03/29 05:32:10;;;;;;;10.47;6.37;;;7.50;99.90;;;;;;5043416;28;20232;-72
2023/03/29 05:34:38;;;;;;;14.07;5.77;;;7.60;99.90;;;;;;5043104;28;20631;-71
2023/03/29 05:37:04;;;;;;;11.00;5.73;;;7.60;99.90;;;;;;5044962;28;20200;-72
2023/03/29 05:39:32;;;;;;;8.73;5.63;;;7.60;99.90;;;;;;5046535;28;20254;-71
2023/03/29 05:42:03;;;;;;;9.10;5.87;;;7.60;99.90;;;;;;5048955;28;20274;-73
2023/03/29 05:44:30;;;;;;;8.10;5.93;;;7.60;99.90;;;;;;5041719;28;20208;-74
2023/03/29 05:46:57;;;;;;;13.23;7.13;;;7.70;99.90;;;;;;5044251;28;20286;-74
2023/03/29 05:49:24;;;;;;;10.93;6.57;;;7.70;99.90;;;;;;5028351;28;20666;-74
2023/03/29 05:51:51;;;;;;;9.47;5.30;;;7.70;99.90;;;;;;5047396;28;20638;-75
2023/03/29 05:54:17;;;;;;;10.67;5.27;;;7.80;99.90;;;;;;5040289;28;20213;-74
2023/03/29 05:56:47;;;;;;;10.80;5.90;;;7.80;99.90;;;;;;5033242;28;20200;-76
2023/03/29 05:59:16;;;;;;;10.30;5.87;;;7.80;99.90;;;;;;5043645;28;20242;-73
2023/03/29 06:01:45;;;;;;;9.83;6.50;;;7.80;99.90;;;;;;5040275;28;20198;-74
2023/03/29 06:04:13;;;;;;;9.80;5.57;;;7.90;99.90;;;;;;5044081;28;20319;-75
2023/03/29 06:06:40;;;;;;;12.37;6.87;;;7.90;99.90;;;;;;5027324;28;20305;-76
2023/03/29 06:09:08;;;;;;;10.13;6.37;;;8.00;99.90;;;;;;5028390;28;20248;-74
2023/03/29 06:11:35;;;;;;;10.03;6.00;;;7.90;99.90;;;;;;5050329;28;20235;-74
2023/03/29 06:14:02;;;;;;;10.77;5.90;;;8.00;99.90;;;;;;5045407;28;20736;-73
2023/03/29 06:16:29;;;;;;;8.80;5.50;;;7.80;99.90;;;;;;5044672;28;20294;-74
2023/03/29 06:18:56;;;;;;;8.17;5.60;;;8.00;99.90;;;;;;5045777;28;20270;-73
2023/03/29 06:21:25;;;;;;;9.13;5.67;;;8.00;99.90;;;;;;5044735;28;20300;-74
2023/03/29 06:23:52;;;;;;;11.53;5.73;;;8.10;99.90;;;;;;5047737;28;20733;-73
2023/03/29 06:26:19;;;;;;;10.57;6.13;;;8.00;99.90;;;;;;5042163;28;20205;-74
2023/03/29 06:28:46;;;;;;;10.17;5.53;;;8.10;99.90;;;;;;5044403;28;20233;-74
2023/03/29 06:31:16;;;;;;;7.43;5.17;;;8.10;99.90;;;;;;5042716;28;20617;-73
2023/03/29 06:33:43;;;;;;;9.67;5.83;;;8.10;99.90;;;;;;5044610;28;20225;-74
2023/03/29 06:36:10;;;;;;;9.97;5.10;;;8.20;99.90;;;;;;5046158;28;20284;-74
2023/03/29 06:38:37;;;;;;;10.40;5.37;;;8.20;99.90;;;;;;5043951;28;20604;-74
2023/03/29 06:41:07;;;;;;;12.27;5.83;;;8.30;99.90;;;;;;5044870;28;20223;-75
2023/03/29 06:43:36;;;;;;;8.93;5.30;;;8.30;99.90;;;;;;5042465;28;20221;-76
2023/03/29 06:46:07;;;;;;;9.50;5.90;;;8.30;99.90;;;;;;5032326;28;20724;-75
2023/03/29 06:48:34;;;;;;;13.47;6.07;;;8.40;99.90;;;;;;5045717;28;20684;-75
2023/03/29 06:51:01;;;;;;;8.47;5.30;;;8.40;99.90;;;;;;5043548;28;20290;-74
2023/03/29 06:53:28;;;;;;;7.13;5.23;;;8.40;99.90;;;;;;5042559;28;20635;-74
2023/03/29 06:55:55;;;;;;;9.33;5.53;;;8.40;99.90;;;;;;5040058;28;20202;-74
2023/03/29 06:58:22;;;;;;;7.90;5.10;;;8.50;99.90;;;;;;5021804;28;20229;-75
2023/03/29 07:00:48;;;;;;;7.93;5.30;;;8.50;99.90;;;;;;5048792;28;20212;-75
2023/03/29 07:03:22;;;;;;;9.70;5.30;;;8.60;99.90;;;;;;5041606;28;20310;-74
2023/03/29 07:05:50;;;;;;;9.93;5.60;;;8.60;99.90;;;;;;5046399;28;20197;-75
2023/03/29 07:08:21;;;;;;;7.97;5.40;;;8.60;99.90;;;;;;5052322;28;20295;-74
2023/03/29 07:10:52;;;;;;;11.23;5.67;;;8.70;99.90;;;;;;5028076;28;20287;-74
2023/03/29 07:13:18;;;;;;;10.47;5.20;;;8.80;99.90;;;;;;5049110;28;20646;-75
2023/03/29 07:15:45;;;;;;;9.03;4.50;;;8.80;99.90;;;;;;5047459;28;20697;-74
2023/03/29 07:18:12;;;;;;;8.97;5.00;;;8.90;99.90;;;;;;5051061;28;20296;-75
2023/03/29 07:20:40;;;;;;;10.27;5.50;;;9.00;99.90;;;;;;5026626;28;20653;-76
2023/03/29 07:23:08;;;;;;;9.17;4.90;;;9.10;99.90;;;;;;5030580;28;20487;-74
2023/03/29 07:25:37;;;;;;;11.50;5.23;;;9.20;99.90;;;;;;5023722;28;20213;-74
2023/03/29 07:28:05;;;;;;;9.50;5.17;;;9.40;99.90;;;;;;5043819;28;20195;-74
2023/03/29 07:30:32;;;;;;;8.10;5.33;;;9.50;99.90;;;;;;5055512;28;20653;-74
2023/03/29 07:32:59;;;;;;;10.57;5.27;;;9.60;99.90;;;;;;5033405;28;20592;-77
2023/03/29 07:35:27;;;;;;;9.80;5.40;;;9.70;99.90;;;;;;5052484;28;20201;-74
2023/03/29 07:37:54;;;;;;;8.90;4.80;;;9.80;99.90;;;;;;5047643;28;20229;-74
2023/03/29 07:40:22;;;;;;;10.37;5.53;;;9.90;99.90;;;;;;5046376;28;20292;-74
2023/03/29 07:42:55;;;;;;;9.13;4.97;;;10.00;99.90;;;;;;5051253;28;20207;-74
2023/03/29 07:45:25;;;;;;;11.80;6.13;;;10.10;99.90;;;;;;5049102;28;20202;-74
2023/03/29 07:47:58;;;;;;;10.53;5.50;;;10.20;99.90;;;;;;5047686;28;20213;-74
2023/03/29 07:50:26;;;;;;;11.33;6.03;;;10.20;99.90;;;;;;5025701;28;20784;-74
2023/03/29 07:52:53;;;;;;;9.93;5.20;;;10.60;99.90;;;;;;5044407;28;20720;-74
2023/03/29 07:55:20;;;;;;;10.87;6.47;;;10.40;99.90;;;;;;5048379;28;20213;-75
2023/03/29 07:57:50;;;;;;;13.93;5.47;;;10.80;99.90;;;;;;5058008;28;20570;-75
2023/03/29 08:00:18;;;;;;;10.03;5.60;;;11.00;99.90;;;;;;5046771;28;20203;-75
2023/03/29 08:02:48;;;;;;;10.00;6.13;;;11.00;99.90;;;;;;5052596;28;20217;-75
2023/03/29 08:05:16;;;;;;;9.47;6.10;;;11.10;99.90;;;;;;5053188;28;20282;-74
2023/03/29 08:07:55;;;;;;;12.97;6.37;;;11.50;99.90;;;;;;5050150;28;20200;-73
2023/03/29 08:10:22;;;;;;;10.50;5.57;;;11.70;99.90;;;;;;5051010;28;20387;-75
2023/03/29 08:12:49;;;;;;;8.90;6.20;;;12.40;99.90;;;;;;5051094;28;20710;-75
2023/03/29 08:15:16;;;;;;;10.00;6.10;;;12.10;99.90;;;;;;5052153;28;20248;-75
2023/03/29 08:17:43;;;;;;;10.67;5.77;;;12.10;99.90;;;;;;5045357;28;20252;-73
2023/03/29 08:20:14;;;;;;;9.60;6.23;;;12.00;99.90;;;;;;5051050;28;20615;-74
2023/03/29 08:22:41;;;;;;;9.67;5.93;;;12.20;99.90;;;;;;5050013;28;20609;-75
2023/03/29 08:25:08;;;;;;;11.60;6.50;;;12.20;99.90;;;;;;5053950;28;20220;-74
2023/03/29 08:27:36;;;;;;;8.77;5.37;;;12.10;99.90;;;;;;5054402;28;20287;-75
2023/03/29 08:30:06;;;;;;;9.13;5.93;;;12.00;99.90;;;;;;5035201;28;20664;-75
2023/03/29 08:32:34;;;;;;;9.10;6.23;;;12.20;99.90;;;;;;5052396;28;20229;-76
2023/03/29 08:35:03;;;;;;;9.97;6.03;;;12.10;99.90;;;;;;5053599;28;20597;-75
2023/03/29 08:37:33;;;;;;;12.60;6.40;;;11.90;99.90;;;;;;5057340;28;20247;-74
2023/03/29 08:40:00;;;;;;;11.73;6.17;;;12.00;99.90;;;;;;5050264;28;20249;-74
2023/03/29 08:42:39;;;;;;;8.77;5.80;;;12.10;99.90;;;;;;5037110;28;20208;-74
2023/03/29 08:45:39;;;;;;;10.40;5.77;;;12.20;99.90;;;;;;5051713;28;20211;-74
2023/03/29 08:48:24;;;;;;;10.43;6.40;;;12.30;99.90;;;;;;5013299;28;20748;-74
2023/03/29 08:51:02;;;;;;;8.13;5.70;;;12.40;99.90;;;;;;5048867;28;20277;-74
2023/03/29 08:53:45;;;;;;;11.83;6.27;;;12.60;99.90;;;;;;5054296;28;20625;-73
2023/03/29 08:56:42;;;;;;;11.53;6.50;;;12.60;99.90;;;;;;5037140;28;20201;-75
2023/03/29 08:59:19;;;;;;;12.63;7.30;;;12.60;99.90;;;;;;5051477;28;20239;-74
2023/03/29 09:01:48;;;;;;;12.37;6.83;;;12.70;99.90;;;;;;5049053;28;20192;-74
2023/03/29 09:04:19;;;;;;;12.90;7.63;;;12.70;99.90;;;;;;5046730;28;20225;-74
2023/03/29 09:06:46;;;;;;;17.70;8.30;;;12.70;99.90;;;;;;5050755;28;20243;-75
2023/03/29 09:09:22;;;;;;;14.53;8.27;;;12.50;99.90;;;;;;5046284;28;20289;-74
2023/03/29 09:12:05;;;;;;;11.30;7.50;;;12.50;99.90;;;;;;5058841;28;20199;-75
2023/03/29 09:14:35;;;;;;;12.87;8.17;;;12.40;99.90;;;;;;5053212;28;20239;-75
2023/03/29 09:17:50;;;;;;;13.27;7.23;;;12.40;99.90;;;;;;5058730;28;20236;-76
2023/03/29 09:20:29;;;;;;;16.53;8.70;;;12.50;99.90;;;;;;5040440;28;20229;-73
2023/03/29 09:23:21;;;;;;;16.40;8.57;;;12.40;99.90;;;;;;5035996;28;20277;-74
2023/03/29 09:26:03;;;;;;;14.20;8.33;;;12.40;99.90;;;;;;5039617;28;20201;-75
2023/03/29 09:28:37;;;;;;;13.60;8.73;;;12.50;99.90;;;;;;5053397;28;20390;-74
2023/03/29 09:31:14;;;;;;;17.27;8.83;;;12.90;99.90;;;;;;5054722;28;20224;-74
2023/03/29 09:34:07;;;;;;;14.13;8.67;;;12.80;99.90;;;;;;5037265;28;20209;-74
2023/03/29 09:36:46;;;;;;;16.97;8.87;;;12.70;99.90;;;;;;5054795;28;20209;-74
2023/03/29 09:39:15;;;;;;;13.53;7.93;;;12.80;99.90;;;;;;5059509;28;20254;-74
2023/03/29 09:41:49;;;;;;;12.17;7.33;;;12.80;99.90;;;;;;5035973;28;20193;-77
2023/03/29 09:44:21;;;;;;;14.40;7.43;;;12.90;99.90;;;;;;5054133;28;20248;-74
2023/03/29 09:47:55;;;;;;;13.23;8.27;;;12.90;99.90;;;;;;5053267;28;20189;-75
2023/03/29 09:50:34;;;;;;;14.40;8.10;;;12.90;99.90;;;;;;4977978;28;20251;-75
2023/03/29 09:53:00;;;;;;;12.57;7.83;;;13.10;99.90;;;;;;5023716;28;20221;-74
2023/03/29 09:55:35;;;;;;;12.47;7.47;;;13.30;99.90;;;;;;5056054;28;20651;-75
2023/03/29 09:58:17;;;;;;;13.60;8.07;;;13.40;99.90;;;;;;5047955;28;20205;-73
2023/03/29 10:00:45;;;;;;;15.37;8.13;;;13.50;99.90;;;;;;5046514;28;20236;-75
2023/03/29 10:03:28;;;;;;;12.23;8.20;;;14.40;99.90;;;;;;5057843;28;20281;-75
2023/03/29 10:05:59;;;;;;;15.70;7.17;;;13.90;99.90;;;;;;5048195;28;20562;-74
2023/03/29 10:08:26;;;;;;;15.60;8.50;;;13.70;99.90;;;;;;5052918;28;20239;-75
2023/03/29 10:10:56;;;;;;;11.20;7.93;;;13.90;99.90;;;;;;5056841;28;20212;-74
2023/03/29 10:13:42;;;;;;;10.07;7.57;;;13.80;99.90;;;;;;5051936;28;20215;-76
2023/03/29 10:16:17;;;;;;;13.10;8.20;;;;;;;;;;5057673;28;20208;-77
2023/03/29 10:18:46;;;;;;;12.05;7.35;;;14.20;99.90;;;;;;5052846;28;20268;-74
2023/03/29 10:21:14;;;;;;;13.55;7.68;;;14.40;99.90;;;;;;5052574;28;20209;-74
2023/03/29 10:23:41;;;;;;;10.63;7.40;;;14.60;99.90;;;;;;5049660;28;20313;-76
2023/03/29 10:26:37;;;;;;;12.25;7.55;;;14.70;99.90;;;;;;5048137;28;20291;-74
2023/03/29 10:29:07;;;;;;;10.18;6.95;;;14.90;99.90;;;;;;5051981;28;20208;-74
2023/03/29 10:31:40;;;;;;;10.57;7.32;;;14.80;99.90;;;;;;5046419;28;20297;-74
2023/03/29 10:34:10;;;;;;;10.50;7.38;;;14.90;99.90;;;;;;5053925;28;20222;-74
2023/03/29 10:36:41;;;;;;;11.00;6.85;;;14.90;99.90;;;;;;5046455;28;20201;-75
2023/03/29 10:39:12;;;;;;;13.45;7.10;;;14.90;99.90;;;;;;5053642;28;20260;-75
2023/03/29 10:41:39;;;;;;;9.30;6.63;;;14.90;99.90;;;;;;5051749;28;20514;-75
2023/03/29 10:44:22;;;;;;;11.40;6.55;;;14.70;99.90;;;;;;5046391;28;20198;-74
2023/03/29 10:46:50;;;;;;;11.75;6.70;;;14.80;99.90;;;;;;5035141;28;20236;-76
2023/03/29 10:49:18;;;;;;;15.35;7.32;;;14.90;99.90;;;;;;5052471;28;20256;-75
2023/03/29 10:51:48;;;;;;;10.27;6.43;;;15.10;99.90;;;;;;5052406;28;20197;-75
2023/03/29 10:54:20;;;;;;;10.68;6.53;;;15.10;99.90;;;;;;5054960;28;20213;-74
2023/03/29 10:57:10;;;;;;;10.70;6.63;;;15.30;99.90;;;;;;5053940;28;20192;-75
2023/03/29 10:59:42;;;;;;;10.15;7.20;;;15.30;99.90;;;;;;5043400;28;20345;-75
2023/03/29 11:02:15;;;;;;;10.73;7.97;;;15.50;99.90;;;;;;5053075;28;20198;-75
2023/03/29 11:05:15;;;;;;;10.40;7.30;;;15.40;99.90;;;;;;5026514;28;20209;-74
2023/03/29 11:08:13;;;;;;;11.80;7.95;;;15.30;99.90;;;;;;5048348;28;20217;-74
2023/03/29 11:10:52;;;;;;;11.10;8.63;;;15.30;99.90;;;;;;5045104;28;20293;-75
2023/03/29 11:13:30;;;;;;;14.38;8.73;;;15.30;99.90;;;;;;5054165;28;20266;-74
2023/03/29 11:16:27;;;;;;;12.23;8.65;;;15.30;99.90;;;;;;5056031;28;20204;-76
2023/03/29 11:19:03;;;;;;;13.32;8.88;;;15.20;99.90;;;;;;5016863;28;20288;-74
2023/03/29 11:21:46;;;;;;;13.07;9.45;;;15.10;99.90;;;;;;5027583;28;20288;-75
2023/03/29 11:24:26;;;;;;;13.88;8.88;;;15.30;99.90;;;;;;5036425;28;20205;-75
2023/03/29 11:27:14;;;;;;;11.88;8.93;;;15.40;99.90;;;;;;5025146;28;20198;-79
2023/03/29 11:29:59;;;;;;;12.77;8.43;;;15.40;99.90;;;;;;5032260;28;20337;-76
2023/03/29 11:32:56;;;;;;;10.75;8.10;;;15.40;99.90;;;;;;5010784;28;20225;-75
2023/03/29 11:35:23;;;;;;;11.93;8.35;;;15.40;99.90;;;;;;5034961;28;20214;-75
2023/03/29 11:38:16;;;;;;;11.55;8.43;;;15.40;99.90;;;;;;5028386;28;20201;-74
2023/03/29 11:40:55;;;;;;;11.52;8.20;;;15.60;99.90;;;;;;5024266;28;20256;-74
2023/03/29 11:43:41;;;;;;;10.32;8.10;;;15.80;99.90;;;;;;5020914;28;20252;-75
2023/03/29 11:46:19;;;;;;;10.98;8.32;;;16.00;99.90;;;;;;5003014;28;20256;-75
2023/03/29 11:49:24;;;;;;;12.38;8.75;;;15.90;99.90;;;;;;5020031;28;20222;-76
2023/03/29 11:51:58;;;;;;;11.23;8.10;;;15.90;99.90;;;;;;5021501;28;20206;-74
2023/03/29 11:55:02;;;;;;;11.05;7.82;;;15.60;99.90;;;;;;5019988;28;20206;-75
2023/03/29 11:57:44;;;;;;;9.55;7.45;;;15.60;99.90;;;;;;5016398;28;20238;-75
2023/03/29 12:00:18;;;;;;;9.13;6.93;;;15.60;99.90;;;;;;5018261;28;20238;-77
2023/03/29 12:02:57;;;;;;;9.50;7.47;;;15.80;99.90;;;;;;5019210;28;20226;-75
2023/03/29 12:05:32;;;;;;;9.57;7.30;;;15.80;99.90;;;;;;5023243;28;20206;-76
2023/03/29 12:08:15;;;;;;;10.18;6.88;;;15.70;99.90;;;;;;5021245;28;20236;-75
2023/03/29 12:11:14;;;;;;;10.30;7.38;;;15.70;99.90;;;;;;5003400;28;20328;-76
2023/03/29 12:14:07;;;;;;;10.50;7.03;;;15.80;99.90;;;;;;5022223;28;20704;-73
2023/03/29 12:16:40;;;;;;;9.90;7.15;;;15.90;99.90;;;;;;5006828;28;20245;-78
2023/03/29 12:19:21;;;;;;;14.35;8.45;;;16.00;99.90;;;;;;5041132;28;20673;-77
2023/03/29 12:21:53;;;;;;;10.63;7.28;;;15.90;99.90;;;;;;5039776;28;20217;-77
2023/03/29 12:24:20;;;;;;;9.10;7.07;;;15.70;99.90;;;;;;5022484;28;20292;-78
2023/03/29 12:27:08;;;;;;;8.82;7.07;;;15.40;99.90;;;;;;5041542;28;20706;-78
2023/03/29 12:29:38;;;;;;;11.23;7.75;;;15.20;99.90;;;;;;5041561;28;20217;-79
2023/03/29 12:32:25;;;;;;;17.80;8.45;;;15.10;99.90;;;;;;5030209;28;20202;-77
2023/03/29 12:35:17;;;;;;;11.10;8.68;;;14.90;99.90;;;;;;5020387;28;20220;-76
2023/03/29 12:38:02;;;;;;;12.65;9.02;;;14.80;99.90;;;;;;5030622;28;20650;-77
2023/03/29 12:40:42;;;;;;;17.73;9.82;;;14.80;99.90;;;;;;5020743;28;20225;-75
2023/03/29 12:43:38;;;;;;;10.90;8.93;;;14.70;99.90;;;;;;5021227;28;20209;-80
2023/03/29 12:46:25;;;;;;;12.30;8.73;;;14.90;99.90;;;;;;5041550;28;20248;-77
2023/03/29 12:48:56;;;;;;;13.73;9.65;;;14.80;99.90;;;;;;5042316;28;20222;-76
2023/03/29 12:51:31;;;;;;;13.32;9.43;;;14.80;99.90;;;;;;5040925;28;20197;-79
2023/03/29 12:54:22;;;;;;;12.45;9.38;;;14.70;99.90;;;;;;5041926;28;20240;-77
2023/03/29 12:56:57;;;;;;;13.02;9.25;;;14.70;99.90;;;;;;5039002;28;20254;-78
2023/03/29 12:59:33;;;;;;;14.27;9.27;;;14.60;99.90;;;;;;5022362;28;20286;-77
2023/03/29 13:02:13;;;;;;;15.20;9.90;;;14.70;99.90;;;;;;5012906;28;20556;-74
2023/03/29 13:04:50;;;;;;;17.20;9.27;;;14.60;99.90;;;;;;5030686;28;20560;-74
2023/03/29 13:07:22;;;;;;;14.25;9.77;;;14.70;99.90;;;;;;5038722;28;20202;-76
2023/03/29 13:09:52;;;;;;;20.08;10.02;;;14.70;99.90;;;;;;5039526;28;20570;-74
2023/03/29 13:12:38;;;;;;;13.70;9.07;;;14.80;99.90;;;;;;5040394;28;20202;-74
2023/03/29 13:15:20;;;;;;;14.55;9.27;;;14.90;99.90;;;;;;5040907;28;20316;-75
2023/03/29 13:18:32;;;;;;;14.52;9.70;;;14.90;99.90;;;;;;5032618;28;20307;-75
2023/03/29 13:21:13;;;;;;;15.55;9.82;;;15.00;99.90;;;;;;5052176;28;20224;-77